sensor_id;sensor_type;location;lat;lon;timestamp;temperature;humidity
21419;DHT22;10870;51.384;10.316;2022-09-09T00:00:51;15.30;99.90
21419;DHT22;10870;51.384;10.316;2022-09-09T00:05:04;15.00;99.90
21419;DHT22;10870;51.384;10.316;2022-09-09T00:07:42;15.20;99.90
21419;DHT22;10870;51.384;10.316;2022-09-09T00:09:45;15.20;99.90
21419;DHT22;10870;51.384;10.316;2022-09-09T00:16:22;15.20;99.90
21419;DHT22;10870;51.384;10.316;2022-09-09T00:20:47;15.20;99.90
21419;DHT22;10870;51.384;10.316;2022-09-09T00:25:14;15.20;99.90
21419;DHT22;10870;51.384;10.316;2022-09-09T00:27:36;15.20;99.90
21419;DHT22;10870;51.384;10.316;2022-09-09T00:29:46;15.20;99.90
21419;DHT22;10870;51.384;10.316;2022-09-09T00:31:47;15.20;99.90
21419;DHT22;10870;51.384;10.316;2022-09-09T00:33:50;15.20;99.90
21419;DHT22;10870;51.384;10.316;2022-09-09T00:35:58;15.10;99.90
21419;DHT22;10870;51.384;10.316;2022-09-09T00:38:02;15.10;99.90
21419;DHT22;10870;51.384;10.316;2022-09-09T00:40:11;15.20;99.90
21419;DHT22;10870;51.384;10.316;2022-09-09T00:42:23;15.20;99.90
21419;DHT22;10870;51.384;10.316;2022-09-09T00:44:30;15.10;99.90
21419;DHT22;10870;51.384;10.316;2022-09-09T00:46:49;15.10;99.90
21419;DHT22;10870;51.384;10.316;2022-09-09T00:55:40;15.00;99.90
21419;DHT22;10870;51.384;10.316;2022-09-09T00:57:45;15.10;99.90
21419;DHT22;10870;51.384;10.316;2022-09-09T01:01:53;15.10;99.90
21419;DHT22;10870;51.384;10.316;2022-09-09T01:03:55;15.00;99.90
21419;DHT22;10870;51.384;10.316;2022-09-09T01:06:13;15.10;99.90
21419;DHT22;10870;51.384;10.316;2022-09-09T01:14:49;15.00;99.90
21419;DHT22;10870;51.384;10.316;2022-09-09T01:16:54;14.90;99.90
21419;DHT22;10870;51.384;10.316;2022-09-09T01:19:00;14.90;99.90
21419;DHT22;10870;51.384;10.316;2022-09-09T01:21:09;14.90;99.90
21419;DHT22;10870;51.384;10.316;2022-09-09T01:25:27;14.90;99.90
21419;DHT22;10870;51.384;10.316;2022-09-09T01:27:28;14.90;99.90
21419;DHT22;10870;51.384;10.316;2022-09-09T01:29:30;15.00;99.90
21419;DHT22;10870;51.384;10.316;2022-09-09T01:31:32;14.90;99.90
21419;DHT22;10870;51.384;10.316;2022-09-09T01:33:35;14.90;99.90
21419;DHT22;10870;51.384;10.316;2022-09-09T01:35:42;14.90;99.90
21419;DHT22;10870;51.384;10.316;2022-09-09T01:37:44;15.00;99.90
21419;DHT22;10870;51.384;10.316;2022-09-09T01:39:45;15.00;99.90
21419;DHT22;10870;51.384;10.316;2022-09-09T01:41:54;15.00;99.90
21419;DHT22;10870;51.384;10.316;2022-09-09T01:43:56;14.90;99.90
21419;DHT22;10870;51.384;10.316;2022-09-09T01:45:58;14.90;99.90
21419;DHT22;10870;51.384;10.316;2022-09-09T01:48:00;14.90;99.90
21419;DHT22;10870;51.384;10.316;2022-09-09T01:50:01;14.90;99.90
21419;DHT22;10870;51.384;10.316;2022-09-09T01:52:03;15.00;99.90
21419;DHT22;10870;51.384;10.316;2022-09-09T01:54:04;14.90;99.90
21419;DHT22;10870;51.384;10.316;2022-09-09T02:00:10;14.90;99.90
21419;DHT22;10870;51.384;10.316;2022-09-09T02:02:18;15.00;99.90
21419;DHT22;10870;51.384;10.316;2022-09-09T02:06:37;15.00;99.90
21419;DHT22;10870;51.384;10.316;2022-09-09T02:08:43;15.00;99.90
21419;DHT22;10870;51.384;10.316;2022-09-09T02:10:53;15.00;99.90
21419;DHT22;10870;51.384;10.316;2022-09-09T02:12:59;15.00;99.90
21419;DHT22;10870;51.384;10.316;2022-09-09T02:15:07;15.00;99.90
21419;DHT22;10870;51.384;10.316;2022-09-09T02:17:11;15.00;99.90
21419;DHT22;10870;51.384;10.316;2022-09-09T02:19:20;15.00;99.90
21419;DHT22;10870;51.384;10.316;2022-09-09T02:21:29;15.00;99.90
21419;DHT22;10870;51.384;10.316;2022-09-09T02:23:31;15.00;99.90
21419;DHT22;10870;51.384;10.316;2022-09-09T02:25:32;15.00;99.90
21419;DHT22;10870;51.384;10.316;2022-09-09T02:27:36;15.00;99.90
21419;DHT22;10870;51.384;10.316;2022-09-09T02:29:41;15.00;99.90
21419;DHT22;10870;51.384;10.316;2022-09-09T02:31:42;15.00;99.90
21419;DHT22;10870;51.384;10.316;2022-09-09T02:33:46;15.00;99.90
21419;DHT22;10870;51.384;10.316;2022-09-09T02:35:50;15.00;99.90
21419;DHT22;10870;51.384;10.316;2022-09-09T02:37:52;15.10;99.90
21419;DHT22;10870;51.384;10.316;2022-09-09T02:39:54;15.10;99.90
21419;DHT22;10870;51.384;10.316;2022-09-09T02:41:55;15.10;99.90
21419;DHT22;10870;51.384;10.316;2022-09-09T02:43:59;15.10;99.90
21419;DHT22;10870;51.384;10.316;2022-09-09T02:48:08;15.10;99.90
21419;DHT22;10870;51.384;10.316;2022-09-09T02:52:14;15.10;99.90
21419;DHT22;10870;51.384;10.316;2022-09-09T02:56:21;15.00;99.90
21419;DHT22;10870;51.384;10.316;2022-09-09T02:58:25;15.10;99.90
21419;DHT22;10870;51.384;10.316;2022-09-09T03:00:29;15.00;99.90
21419;DHT22;10870;51.384;10.316;2022-09-09T03:02:31;15.00;99.90
21419;DHT22;10870;51.384;10.316;2022-09-09T03:04:31;15.00;99.90
21419;DHT22;10870;51.384;10.316;2022-09-09T03:06:32;15.00;99.90
21419;DHT22;10870;51.384;10.316;2022-09-09T03:08:36;15.00;99.90
21419;DHT22;10870;51.384;10.316;2022-09-09T03:10:39;15.00;99.90
21419;DHT22;10870;51.384;10.316;2022-09-09T03:12:40;15.00;99.90
21419;DHT22;10870;51.384;10.316;2022-09-09T03:14:41;15.00;99.90
21419;DHT22;10870;51.384;10.316;2022-09-09T03:16:41;15.00;99.90
21419;DHT22;10870;51.384;10.316;2022-09-09T03:18:43;15.00;99.90
21419;DHT22;10870;51.384;10.316;2022-09-09T03:20:47;15.00;99.90
21419;DHT22;10870;51.384;10.316;2022-09-09T03:22:52;14.90;99.90
21419;DHT22;10870;51.384;10.316;2022-09-09T03:24:53;15.00;99.90
21419;DHT22;10870;51.384;10.316;2022-09-09T03:26:56;15.00;99.90
21419;DHT22;10870;51.384;10.316;2022-09-09T03:28:57;14.90;99.90
21419;DHT22;10870;51.384;10.316;2022-09-09T03:30:58;14.90;99.90
21419;DHT22;10870;51.384;10.316;2022-09-09T03:33:03;14.90;99.90
21419;DHT22;10870;51.384;10.316;2022-09-09T03:35:04;14.90;99.90
21419;DHT22;10870;51.384;10.316;2022-09-09T03:37:07;15.00;99.90
21419;DHT22;10870;51.384;10.316;2022-09-09T03:39:09;15.00;99.90
21419;DHT22;10870;51.384;10.316;2022-09-09T03:41:10;15.00;99.90
21419;DHT22;10870;51.384;10.316;2022-09-09T03:43:14;15.00;99.90
21419;DHT22;10870;51.384;10.316;2022-09-09T03:45:17;15.00;99.90
21419;DHT22;10870;51.384;10.316;2022-09-09T03:47:18;15.00;99.90
21419;DHT22;10870;51.384;10.316;2022-09-09T03:49:19;15.00;99.90
21419;DHT22;10870;51.384;10.316;2022-09-09T03:51:28;15.10;99.90
21419;DHT22;10870;51.384;10.316;2022-09-09T03:53:29;15.00;99.90
21419;DHT22;10870;51.384;10.316;2022-09-09T03:55:31;15.00;99.90
21419;DHT22;10870;51.384;10.316;2022-09-09T03:57:33;15.00;99.90
21419;DHT22;10870;51.384;10.316;2022-09-09T03:59:41;15.00;99.90
21419;DHT22;10870;51.384;10.316;2022-09-09T04:01:42;15.10;99.90
21419;DHT22;10870;51.384;10.316;2022-09-09T04:03:44;15.00;99.90
21419;DHT22;10870;51.384;10.316;2022-09-09T04:05:48;15.00;99.90
21419;DHT22;10870;51.384;10.316;2022-09-09T04:07:54;15.00;99.90
21419;DHT22;10870;51.384;10.316;2022-09-09T04:09:56;15.00;99.90
21419;DHT22;10870;51.384;10.316;2022-09-09T04:11:57;15.00;99.90
21419;DHT22;10870;51.384;10.316;2022-09-09T04:13:58;15.00;99.90
21419;DHT22;10870;51.384;10.316;2022-09-09T04:15:59;15.00;99.90
21419;DHT22;10870;51.384;10.316;2022-09-09T04:18:04;15.00;99.90
21419;DHT22;10870;51.384;10.316;2022-09-09T04:20:06;15.00;99.90
21419;DHT22;10870;51.384;10.316;2022-09-09T04:22:12;15.00;99.90
21419;DHT22;10870;51.384;10.316;2022-09-09T04:24:16;15.00;99.90
21419;DHT22;10870;51.384;10.316;2022-09-09T04:26:20;14.90;99.90
21419;DHT22;10870;51.384;10.316;2022-09-09T04:28:22;14.90;99.90
21419;DHT22;10870;51.384;10.316;2022-09-09T04:30:24;14.90;99.90
21419;DHT22;10870;51.384;10.316;2022-09-09T04:32:25;14.90;99.90
21419;DHT22;10870;51.384;10.316;2022-09-09T04:34:29;14.90;99.90
21419;DHT22;10870;51.384;10.316;2022-09-09T04:36:33;14.90;99.90
21419;DHT22;10870;51.384;10.316;2022-09-09T04:38:37;14.90;99.90
21419;DHT22;10870;51.384;10.316;2022-09-09T04:40:41;14.90;99.90
21419;DHT22;10870;51.384;10.316;2022-09-09T04:42:43;14.90;99.90
21419;DHT22;10870;51.384;10.316;2022-09-09T04:44:46;14.90;99.90
21419;DHT22;10870;51.384;10.316;2022-09-09T04:46:47;14.90;99.90
21419;DHT22;10870;51.384;10.316;2022-09-09T04:48:48;14.90;99.90
21419;DHT22;10870;51.384;10.316;2022-09-09T04:50:53;14.90;99.90
21419;DHT22;10870;51.384;10.316;2022-09-09T04:52:54;14.90;99.90
21419;DHT22;10870;51.384;10.316;2022-09-09T04:54:55;14.90;99.90
21419;DHT22;10870;51.384;10.316;2022-09-09T04:56:58;14.90;99.90
21419;DHT22;10870;51.384;10.316;2022-09-09T04:58:59;14.90;99.90
21419;DHT22;10870;51.384;10.316;2022-09-09T05:01:07;14.90;99.90
21419;DHT22;10870;51.384;10.316;2022-09-09T05:03:11;14.90;99.90
21419;DHT22;10870;51.384;10.316;2022-09-09T05:05:13;14.90;99.90
21419;DHT22;10870;51.384;10.316;2022-09-09T05:07:15;14.90;99.90
21419;DHT22;10870;51.384;10.316;2022-09-09T05:09:16;14.90;99.90
21419;DHT22;10870;51.384;10.316;2022-09-09T05:11:18;14.90;99.90
21419;DHT22;10870;51.384;10.316;2022-09-09T05:13:19;14.90;99.90
21419;DHT22;10870;51.384;10.316;2022-09-09T05:15:27;14.90;99.90
21419;DHT22;10870;51.384;10.316;2022-09-09T05:17:37;14.90;99.90
21419;DHT22;10870;51.384;10.316;2022-09-09T05:19:43;14.90;99.90
21419;DHT22;10870;51.384;10.316;2022-09-09T05:21:45;14.90;99.90
21419;DHT22;10870;51.384;10.316;2022-09-09T05:23:46;14.90;99.90
21419;DHT22;10870;51.384;10.316;2022-09-09T05:25:54;14.90;99.90
21419;DHT22;10870;51.384;10.316;2022-09-09T05:27:55;14.90;99.90
21419;DHT22;10870;51.384;10.316;2022-09-09T05:29:56;14.90;99.90
21419;DHT22;10870;51.384;10.316;2022-09-09T05:32:05;14.90;99.90
21419;DHT22;10870;51.384;10.316;2022-09-09T05:34:11;14.80;99.90
21419;DHT22;10870;51.384;10.316;2022-09-09T05:36:12;14.90;99.90
21419;DHT22;10870;51.384;10.316;2022-09-09T05:38:17;14.90;99.90
21419;DHT22;10870;51.384;10.316;2022-09-09T05:40:18;14.90;99.90
21419;DHT22;10870;51.384;10.316;2022-09-09T05:42:22;14.90;99.90
21419;DHT22;10870;51.384;10.316;2022-09-09T05:44:22;14.80;99.90
21419;DHT22;10870;51.384;10.316;2022-09-09T05:46:28;14.80;99.90
21419;DHT22;10870;51.384;10.316;2022-09-09T05:48:34;14.80;99.90
21419;DHT22;10870;51.384;10.316;2022-09-09T05:50:41;15.00;99.90
21419;DHT22;10870;51.384;10.316;2022-09-09T05:52:43;14.90;99.90
21419;DHT22;10870;51.384;10.316;2022-09-09T05:54:46;14.90;99.90
21419;DHT22;10870;51.384;10.316;2022-09-09T05:56:49;14.90;99.90
21419;DHT22;10870;51.384;10.316;2022-09-09T05:58:56;14.90;99.90
21419;DHT22;10870;51.384;10.316;2022-09-09T06:01:05;15.00;99.90
21419;DHT22;10870;51.384;10.316;2022-09-09T06:03:11;15.00;99.90
21419;DHT22;10870;51.384;10.316;2022-09-09T06:05:18;15.00;99.90
21419;DHT22;10870;51.384;10.316;2022-09-09T06:07:22;15.00;99.90
21419;DHT22;10870;51.384;10.316;2022-09-09T06:09:40;15.10;99.90
21419;DHT22;10870;51.384;10.316;2022-09-09T06:11:50;15.10;99.90
21419;DHT22;10870;51.384;10.316;2022-09-09T06:14:03;15.10;99.90
21419;DHT22;10870;51.384;10.316;2022-09-09T06:16:14;15.20;99.90
21419;DHT22;10870;51.384;10.316;2022-09-09T06:18:18;15.20;99.90
21419;DHT22;10870;51.384;10.316;2022-09-09T06:20:19;15.20;99.90
21419;DHT22;10870;51.384;10.316;2022-09-09T06:22:23;15.20;99.90
21419;DHT22;10870;51.384;10.316;2022-09-09T06:24:26;15.20;99.90
21419;DHT22;10870;51.384;10.316;2022-09-09T06:26:29;15.30;99.90
21419;DHT22;10870;51.384;10.316;2022-09-09T06:28:38;15.30;99.90
21419;DHT22;10870;51.384;10.316;2022-09-09T06:33:16;15.40;99.90
21419;DHT22;10870;51.384;10.316;2022-09-09T06:35:27;15.40;99.90
21419;DHT22;10870;51.384;10.316;2022-09-09T06:40:38;15.40;99.90
21419;DHT22;10870;51.384;10.316;2022-09-09T06:43:19;15.40;99.90
21419;DHT22;10870;51.384;10.316;2022-09-09T06:45:26;15.40;99.90
21419;DHT22;10870;51.384;10.316;2022-09-09T06:47:32;15.50;99.90
21419;DHT22;10870;51.384;10.316;2022-09-09T06:49:37;15.40;99.90
21419;DHT22;10870;51.384;10.316;2022-09-09T06:51:51;15.40;99.90
21419;DHT22;10870;51.384;10.316;2022-09-09T06:53:56;15.40;99.90
21419;DHT22;10870;51.384;10.316;2022-09-09T06:58:36;15.40;99.90
21419;DHT22;10870;51.384;10.316;2022-09-09T07:01:17;15.50;99.90
21419;DHT22;10870;51.384;10.316;2022-09-09T07:03:23;15.60;99.90
21419;DHT22;10870;51.384;10.316;2022-09-09T07:05:24;15.60;99.90
21419;DHT22;10870;51.384;10.316;2022-09-09T07:07:30;15.70;99.90
21419;DHT22;10870;51.384;10.316;2022-09-09T07:09:34;15.70;99.90
21419;DHT22;10870;51.384;10.316;2022-09-09T07:11:46;15.70;99.90
21419;DHT22;10870;51.384;10.316;2022-09-09T07:13:50;15.70;99.90
21419;DHT22;10870;51.384;10.316;2022-09-09T07:16:10;15.80;99.90
21419;DHT22;10870;51.384;10.316;2022-09-09T07:18:14;15.90;99.90
21419;DHT22;10870;51.384;10.316;2022-09-09T07:20:18;15.90;99.90
21419;DHT22;10870;51.384;10.316;2022-09-09T07:22:20;16.10;99.90
21419;DHT22;10870;51.384;10.316;2022-09-09T07:24:24;16.10;99.90
21419;DHT22;10870;51.384;10.316;2022-09-09T07:26:30;16.10;99.90
21419;DHT22;10870;51.384;10.316;2022-09-09T07:28:50;16.30;99.90
21419;DHT22;10870;51.384;10.316;2022-09-09T07:30:57;16.20;99.90
21419;DHT22;10870;51.384;10.316;2022-09-09T07:33:28;16.30;99.90
21419;DHT22;10870;51.384;10.316;2022-09-09T07:35:34;16.40;99.90
21419;DHT22;10870;51.384;10.316;2022-09-09T07:37:46;16.40;99.90
21419;DHT22;10870;51.384;10.316;2022-09-09T07:40:05;16.50;99.90
21419;DHT22;10870;51.384;10.316;2022-09-09T07:42:09;16.60;99.90
21419;DHT22;10870;51.384;10.316;2022-09-09T07:44:15;16.70;99.90
21419;DHT22;10870;51.384;10.316;2022-09-09T07:46:22;16.70;99.90
21419;DHT22;10870;51.384;10.316;2022-09-09T07:48:28;16.80;99.90
21419;DHT22;10870;51.384;10.316;2022-09-09T07:50:32;16.80;99.90
21419;DHT22;10870;51.384;10.316;2022-09-09T07:52:55;16.80;99.90
21419;DHT22;10870;51.384;10.316;2022-09-09T07:55:02;16.90;99.90
21419;DHT22;10870;51.384;10.316;2022-09-09T07:57:03;16.90;99.90
21419;DHT22;10870;51.384;10.316;2022-09-09T07:59:08;17.00;99.90
21419;DHT22;10870;51.384;10.316;2022-09-09T08:01:36;17.40;99.90
21419;DHT22;10870;51.384;10.316;2022-09-09T08:03:53;17.00;99.90
21419;DHT22;10870;51.384;10.316;2022-09-09T08:06:03;17.20;99.90
21419;DHT22;10870;51.384;10.316;2022-09-09T08:08:16;17.50;99.90
21419;DHT22;10870;51.384;10.316;2022-09-09T08:10:35;17.50;99.90
21419;DHT22;10870;51.384;10.316;2022-09-09T08:12:53;17.50;99.90
21419;DHT22;10870;51.384;10.316;2022-09-09T08:15:11;17.70;99.90
21419;DHT22;10870;51.384;10.316;2022-09-09T08:17:20;17.60;99.90
21419;DHT22;10870;51.384;10.316;2022-09-09T08:19:29;17.90;99.90
21419;DHT22;10870;51.384;10.316;2022-09-09T08:21:37;17.70;99.90
21419;DHT22;10870;51.384;10.316;2022-09-09T08:23:50;17.80;99.90
21419;DHT22;10870;51.384;10.316;2022-09-09T08:25:54;18.00;99.90
21419;DHT22;10870;51.384;10.316;2022-09-09T08:28:03;17.90;99.90
21419;DHT22;10870;51.384;10.316;2022-09-09T08:30:10;18.00;99.90
21419;DHT22;10870;51.384;10.316;2022-09-09T08:32:17;17.90;99.90
21419;DHT22;10870;51.384;10.316;2022-09-09T08:34:28;18.00;99.90
21419;DHT22;10870;51.384;10.316;2022-09-09T08:36:33;17.90;99.90
21419;DHT22;10870;51.384;10.316;2022-09-09T08:38:37;17.90;99.90
21419;DHT22;10870;51.384;10.316;2022-09-09T08:40:40;18.30;99.90
21419;DHT22;10870;51.384;10.316;2022-09-09T08:42:46;17.90;99.90
21419;DHT22;10870;51.384;10.316;2022-09-09T08:45:47;17.90;99.90
21419;DHT22;10870;51.384;10.316;2022-09-09T08:52:21;17.60;99.90
21419;DHT22;10870;51.384;10.316;2022-09-09T08:54:23;17.80;99.90
21419;DHT22;10870;51.384;10.316;2022-09-09T08:56:24;17.90;99.90
21419;DHT22;10870;51.384;10.316;2022-09-09T08:58:27;18.10;99.90
21419;DHT22;10870;51.384;10.316;2022-09-09T09:01:35;18.00;99.90
21419;DHT22;10870;51.384;10.316;2022-09-09T09:09:43;18.00;99.90
21419;DHT22;10870;51.384;10.316;2022-09-09T09:12:18;18.20;99.90
21419;DHT22;10870;51.384;10.316;2022-09-09T09:14:36;18.10;99.90
21419;DHT22;10870;51.384;10.316;2022-09-09T09:19:13;18.30;99.90
21419;DHT22;10870;51.384;10.316;2022-09-09T09:21:19;18.20;99.90
21419;DHT22;10870;51.384;10.316;2022-09-09T09:23:29;18.30;99.90
21419;DHT22;10870;51.384;10.316;2022-09-09T09:25:36;18.20;99.90
21419;DHT22;10870;51.384;10.316;2022-09-09T09:27:47;18.40;99.90
21419;DHT22;10870;51.384;10.316;2022-09-09T09:29:50;18.50;99.90
21419;DHT22;10870;51.384;10.316;2022-09-09T09:32:10;18.40;99.90
21419;DHT22;10870;51.384;10.316;2022-09-09T09:34:27;18.50;99.90
21419;DHT22;10870;51.384;10.316;2022-09-09T09:41:55;18.60;99.90
21419;DHT22;10870;51.384;10.316;2022-09-09T09:44:26;18.70;99.90
21419;DHT22;10870;51.384;10.316;2022-09-09T09:46:44;18.80;99.90
21419;DHT22;10870;51.384;10.316;2022-09-09T09:49:02;18.90;99.90
21419;DHT22;10870;51.384;10.316;2022-09-09T09:51:09;19.10;99.90
21419;DHT22;10870;51.384;10.316;2022-09-09T09:53:37;19.10;99.90
21419;DHT22;10870;51.384;10.316;2022-09-09T10:00:36;19.60;99.90
21419;DHT22;10870;51.384;10.316;2022-09-09T10:02:38;19.80;99.90
21419;DHT22;10870;51.384;10.316;2022-09-09T10:04:42;19.70;99.90
21419;DHT22;10870;51.384;10.316;2022-09-09T23:28:38;16.30;99.90
21419;DHT22;10870;51.384;10.316;2022-09-09T23:30:41;16.30;99.90
21419;DHT22;10870;51.384;10.316;2022-09-09T23:32:47;16.30;99.90
21419;DHT22;10870;51.384;10.316;2022-09-09T23:34:51;16.30;99.90
21419;DHT22;10870;51.384;10.316;2022-09-09T23:36:52;16.20;99.90
21419;DHT22;10870;51.384;10.316;2022-09-09T23:38:53;16.20;99.90
21419;DHT22;10870;51.384;10.316;2022-09-09T23:40:55;16.20;99.90
21419;DHT22;10870;51.384;10.316;2022-09-09T23:42:56;16.30;99.90
21419;DHT22;10870;51.384;10.316;2022-09-09T23:45:06;16.20;99.90
21419;DHT22;10870;51.384;10.316;2022-09-09T23:47:07;16.00;99.90
21419;DHT22;10870;51.384;10.316;2022-09-09T23:49:08;16.20;99.90
21419;DHT22;10870;51.384;10.316;2022-09-09T23:51:12;16.20;99.90
21419;DHT22;10870;51.384;10.316;2022-09-09T23:53:16;16.10;99.90
21419;DHT22;10870;51.384;10.316;2022-09-09T23:55:17;16.10;99.90
21419;DHT22;10870;51.384;10.316;2022-09-09T23:57:20;16.10;99.90
21419;DHT22;10870;51.384;10.316;2022-09-09T23:59:21;16.10;99.90
